sensor_id;sensor_type;location;lat;lon;timestamp;P1;durP1;ratioP1;P2;durP2;ratioP2
49376;SDS011;35253;34.688;33.040;2023-05-10T00:01:05;6.20;;;3.22;;
49376;SDS011;35253;34.688;33.040;2023-05-10T00:03:30;5.05;;;2.30;;
49376;SDS011;35253;34.688;33.040;2023-05-10T00:05:56;3.33;;;2.88;;
49376;SDS011;35253;34.688;33.040;2023-05-10T00:08:22;4.40;;;3.17;;
49376;SDS011;35253;34.688;33.040;2023-05-10T00:10:48;6.43;;;3.50;;
49376;SDS011;35253;34.688;33.040;2023-05-10T00:13:14;3.92;;;3.55;;
49376;SDS011;35253;34.688;33.040;2023-05-10T00:15:40;4.35;;;2.45;;
49376;SDS011;35253;34.688;33.040;2023-05-10T00:18:06;23.58;;;4.97;;
49376;SDS011;35253;34.688;33.040;2023-05-10T00:20:31;2.65;;;2.45;;
49376;SDS011;35253;34.688;33.040;2023-05-10T00:22:57;5.30;;;2.90;;
49376;SDS011;35253;34.688;33.040;2023-05-10T00:25:23;5.30;;;3.92;;
49376;SDS011;35253;34.688;33.040;2023-05-10T00:27:48;3.47;;;2.17;;
49376;SDS011;35253;34.688;33.040;2023-05-10T00:30:15;2.55;;;2.35;;
49376;SDS011;35253;34.688;33.040;2023-05-10T00:32:40;3.55;;;2.83;;
49376;SDS011;35253;34.688;33.040;2023-05-10T00:35:06;5.35;;;2.88;;
49376;SDS011;35253;34.688;33.040;2023-05-10T00:37:33;5.75;;;2.88;;
49376;SDS011;35253;34.688;33.040;2023-05-10T00:39:58;3.25;;;2.42;;
49376;SDS011;35253;34.688;33.040;2023-05-10T00:42:24;4.20;;;2.63;;
49376;SDS011;35253;34.688;33.040;2023-05-10T00:44:50;6.95;;;2.92;;
49376;SDS011;35253;34.688;33.040;2023-05-10T00:47:17;2.70;;;2.35;;
49376;SDS011;35253;34.688;33.040;2023-05-10T00:49:43;4.18;;;2.97;;
49376;SDS011;35253;34.688;33.040;2023-05-10T00:52:09;2.65;;;2.38;;
49376;SDS011;35253;34.688;33.040;2023-05-10T00:54:35;3.75;;;2.35;;
49376;SDS011;35253;34.688;33.040;2023-05-10T00:57:01;3.40;;;2.88;;
49376;SDS011;35253;34.688;33.040;2023-05-10T00:59:28;2.65;;;2.40;;
49376;SDS011;35253;34.688;33.040;2023-05-10T01:01:55;3.25;;;2.72;;
49376;SDS011;35253;34.688;33.040;2023-05-10T01:04:20;3.92;;;2.80;;
49376;SDS011;35253;34.688;33.040;2023-05-10T01:06:51;3.85;;;3.17;;
49376;SDS011;35253;34.688;33.040;2023-05-10T01:09:18;3.08;;;2.88;;
49376;SDS011;35253;34.688;33.040;2023-05-10T01:11:44;6.60;;;3.78;;
49376;SDS011;35253;34.688;33.040;2023-05-10T01:14:10;3.92;;;2.80;;
49376;SDS011;35253;34.688;33.040;2023-05-10T01:16:37;6.25;;;3.45;;
49376;SDS011;35253;34.688;33.040;2023-05-10T01:19:10;6.85;;;4.57;;
49376;SDS011;35253;34.688;33.040;2023-05-10T01:21:49;5.18;;;3.22;;
49376;SDS011;35253;34.688;33.040;2023-05-10T01:27:51;5.75;;;3.30;;
49376;SDS011;35253;34.688;33.040;2023-05-10T01:33:46;3.75;;;3.28;;
49376;SDS011;35253;34.688;33.040;2023-05-10T01:36:48;7.60;;;3.70;;
49376;SDS011;35253;34.688;33.040;2023-05-10T01:40:04;6.53;;;4.03;;
49376;SDS011;35253;34.688;33.040;2023-05-10T01:42:20;4.30;;;3.40;;
49376;SDS011;35253;34.688;33.040;2023-05-10T01:47:42;5.53;;;3.13;;
49376;SDS011;35253;34.688;33.040;2023-05-10T01:50:17;4.07;;;3.17;;
49376;SDS011;35253;34.688;33.040;2023-05-10T01:52:47;5.95;;;3.63;;
49376;SDS011;35253;34.688;33.040;2023-05-10T01:55:18;3.60;;;3.15;;
49376;SDS011;35253;34.688;33.040;2023-05-10T01:57:46;5.53;;;4.13;;
49376;SDS011;35253;34.688;33.040;2023-05-10T02:00:16;6.20;;;4.20;;
49376;SDS011;35253;34.688;33.040;2023-05-10T02:02:46;6.35;;;3.65;;
49376;SDS011;35253;34.688;33.040;2023-05-10T02:05:14;4.15;;;3.05;;
49376;SDS011;35253;34.688;33.040;2023-05-10T02:07:41;4.05;;;3.63;;
49376;SDS011;35253;34.688;33.040;2023-05-10T02:10:09;5.03;;;3.70;;
49376;SDS011;35253;34.688;33.040;2023-05-10T02:12:37;5.60;;;3.13;;
49376;SDS011;35253;34.688;33.040;2023-05-10T02:15:07;6.38;;;3.38;;
49376;SDS011;35253;34.688;33.040;2023-05-10T02:17:34;6.97;;;3.72;;
49376;SDS011;35253;34.688;33.040;2023-05-10T02:20:02;6.25;;;4.00;;
49376;SDS011;35253;34.688;33.040;2023-05-10T02:22:29;8.15;;;5.30;;
49376;SDS011;35253;34.688;33.040;2023-05-10T02:24:57;5.13;;;3.95;;
49376;SDS011;35253;34.688;33.040;2023-05-10T02:27:25;4.28;;;3.70;;
49376;SDS011;35253;34.688;33.040;2023-05-10T02:29:53;4.53;;;3.30;;
49376;SDS011;35253;34.688;33.040;2023-05-10T02:32:20;7.32;;;4.68;;
49376;SDS011;35253;34.688;33.040;2023-05-10T02:34:47;5.80;;;3.92;;
49376;SDS011;35253;34.688;33.040;2023-05-10T02:37:18;7.07;;;3.55;;
49376;SDS011;35253;34.688;33.040;2023-05-10T02:39:46;8.07;;;3.90;;
49376;SDS011;35253;34.688;33.040;2023-05-10T02:42:14;11.15;;;4.18;;
49376;SDS011;35253;34.688;33.040;2023-05-10T02:44:43;6.20;;;4.38;;
49376;SDS011;35253;34.688;33.040;2023-05-10T02:49:38;5.47;;;3.85;;
49376;SDS011;35253;34.688;33.040;2023-05-10T02:52:05;9.85;;;5.15;;
49376;SDS011;35253;34.688;33.040;2023-05-10T02:54:39;5.88;;;3.80;;
49376;SDS011;35253;34.688;33.040;2023-05-10T02:57:08;6.95;;;3.70;;
49376;SDS011;35253;34.688;33.040;2023-05-10T02:59:40;6.65;;;3.47;;
49376;SDS011;35253;34.688;33.040;2023-05-10T03:02:08;7.53;;;3.75;;
49376;SDS011;35253;34.688;33.040;2023-05-10T03:04:35;7.30;;;3.90;;
49376;SDS011;35253;34.688;33.040;2023-05-10T03:07:01;8.90;;;3.90;;
49376;SDS011;35253;34.688;33.040;2023-05-10T03:09:27;6.75;;;4.13;;
49376;SDS011;35253;34.688;33.040;2023-05-10T03:14:58;6.30;;;4.20;;
49376;SDS011;35253;34.688;33.040;2023-05-10T03:20:11;8.13;;;4.43;;
49376;SDS011;35253;34.688;33.040;2023-05-10T03:22:44;5.70;;;3.85;;
49376;SDS011;35253;34.688;33.040;2023-05-10T03:25:12;7.53;;;4.15;;
49376;SDS011;35253;34.688;33.040;2023-05-10T03:27:42;6.35;;;3.95;;
49376;SDS011;35253;34.688;33.040;2023-05-10T03:30:12;7.47;;;4.65;;
49376;SDS011;35253;34.688;33.040;2023-05-10T03:32:38;7.40;;;4.40;;
49376;SDS011;35253;34.688;33.040;2023-05-10T03:35:11;8.35;;;3.90;;
49376;SDS011;35253;34.688;33.040;2023-05-10T03:37:38;8.35;;;4.07;;
49376;SDS011;35253;34.688;33.040;2023-05-10T03:40:04;6.32;;;3.88;;
49376;SDS011;35253;34.688;33.040;2023-05-10T03:42:30;7.72;;;4.50;;
49376;SDS011;35253;34.688;33.040;2023-05-10T03:44:56;5.90;;;3.75;;
49376;SDS011;35253;34.688;33.040;2023-05-10T03:47:22;6.15;;;3.75;;
49376;SDS011;35253;34.688;33.040;2023-05-10T03:49:47;6.13;;;4.20;;
49376;SDS011;35253;34.688;33.040;2023-05-10T03:52:13;4.40;;;4.00;;
49376;SDS011;35253;34.688;33.040;2023-05-10T03:54:39;10.00;;;4.85;;
49376;SDS011;35253;34.688;33.040;2023-05-10T03:57:04;6.63;;;3.90;;
49376;SDS011;35253;34.688;33.040;2023-05-10T03:59:30;5.03;;;3.88;;
49376;SDS011;35253;34.688;33.040;2023-05-10T04:01:56;4.10;;;3.65;;
49376;SDS011;35253;34.688;33.040;2023-05-10T04:04:22;6.97;;;4.13;;
49376;SDS011;35253;34.688;33.040;2023-05-10T04:06:48;4.00;;;3.60;;
49376;SDS011;35253;34.688;33.040;2023-05-10T04:09:14;9.38;;;4.60;;
49376;SDS011;35253;34.688;33.040;2023-05-10T04:11:40;6.65;;;4.60;;
49376;SDS011;35253;34.688;33.040;2023-05-10T04:14:05;9.35;;;3.40;;
49376;SDS011;35253;34.688;33.040;2023-05-10T04:16:31;10.57;;;3.75;;
49376;SDS011;35253;34.688;33.040;2023-05-10T04:18:57;4.72;;;4.18;;
49376;SDS011;35253;34.688;33.040;2023-05-10T04:21:22;7.72;;;3.92;;
49376;SDS011;35253;34.688;33.040;2023-05-10T04:23:48;7.55;;;4.43;;
49376;SDS011;35253;34.688;33.040;2023-05-10T04:26:14;8.18;;;4.43;;
49376;SDS011;35253;34.688;33.040;2023-05-10T04:28:40;10.23;;;4.55;;
49376;SDS011;35253;34.688;33.040;2023-05-10T04:31:06;13.57;;;4.95;;
49376;SDS011;35253;34.688;33.040;2023-05-10T04:33:33;7.88;;;4.35;;
49376;SDS011;35253;34.688;33.040;2023-05-10T04:35:59;9.95;;;5.18;;
49376;SDS011;35253;34.688;33.040;2023-05-10T04:38:25;9.70;;;6.30;;
49376;SDS011;35253;34.688;33.040;2023-05-10T04:40:52;8.35;;;5.18;;
49376;SDS011;35253;34.688;33.040;2023-05-10T04:43:18;9.73;;;4.75;;
49376;SDS011;35253;34.688;33.040;2023-05-10T04:45:44;8.85;;;6.53;;
49376;SDS011;35253;34.688;33.040;2023-05-10T04:48:10;9.23;;;5.38;;
49376;SDS011;35253;34.688;33.040;2023-05-10T04:50:36;8.10;;;4.95;;
49376;SDS011;35253;34.688;33.040;2023-05-10T04:53:02;11.02;;;4.93;;
49376;SDS011;35253;34.688;33.040;2023-05-10T04:55:27;7.55;;;4.60;;
49376;SDS011;35253;34.688;33.040;2023-05-10T04:57:53;7.93;;;4.95;;
49376;SDS011;35253;34.688;33.040;2023-05-10T05:00:21;6.82;;;4.60;;
49376;SDS011;35253;34.688;33.040;2023-05-10T05:02:48;12.00;;;4.20;;
49376;SDS011;35253;34.688;33.040;2023-05-10T05:05:13;11.75;;;5.88;;
49376;SDS011;35253;34.688;33.040;2023-05-10T05:07:39;11.25;;;5.00;;
49376;SDS011;35253;34.688;33.040;2023-05-10T05:10:08;8.45;;;5.55;;
49376;SDS011;35253;34.688;33.040;2023-05-10T05:12:34;10.55;;;5.05;;
49376;SDS011;35253;34.688;33.040;2023-05-10T05:15:00;7.13;;;4.53;;
49376;SDS011;35253;34.688;33.040;2023-05-10T05:17:26;7.97;;;4.47;;
49376;SDS011;35253;34.688;33.040;2023-05-10T05:19:52;7.28;;;5.00;;
49376;SDS011;35253;34.688;33.040;2023-05-10T05:22:18;9.02;;;4.78;;
49376;SDS011;35253;34.688;33.040;2023-05-10T05:24:44;7.55;;;4.75;;
49376;SDS011;35253;34.688;33.040;2023-05-10T05:27:10;11.25;;;6.70;;
49376;SDS011;35253;34.688;33.040;2023-05-10T05:29:36;6.70;;;4.80;;
49376;SDS011;35253;34.688;33.040;2023-05-10T05:32:02;7.95;;;4.90;;
49376;SDS011;35253;34.688;33.040;2023-05-10T05:34:28;5.93;;;4.30;;
49376;SDS011;35253;34.688;33.040;2023-05-10T05:36:53;6.95;;;4.60;;
49376;SDS011;35253;34.688;33.040;2023-05-10T05:39:19;6.78;;;4.63;;
49376;SDS011;35253;34.688;33.040;2023-05-10T05:41:45;16.27;;;5.13;;
49376;SDS011;35253;34.688;33.040;2023-05-10T05:44:11;8.07;;;4.45;;
49376;SDS011;35253;34.688;33.040;2023-05-10T05:46:37;14.27;;;4.65;;
49376;SDS011;35253;34.688;33.040;2023-05-10T05:49:03;9.50;;;5.53;;
49376;SDS011;35253;34.688;33.040;2023-05-10T05:51:29;8.77;;;4.55;;
49376;SDS011;35253;34.688;33.040;2023-05-10T05:53:56;78.93;;;12.98;;
49376;SDS011;35253;34.688;33.040;2023-05-10T05:56:21;31.75;;;8.55;;
49376;SDS011;35253;34.688;33.040;2023-05-10T05:58:52;10.07;;;4.32;;
49376;SDS011;35253;34.688;33.040;2023-05-10T06:01:18;8.80;;;4.97;;
49376;SDS011;35253;34.688;33.040;2023-05-10T06:03:43;19.20;;;5.78;;
49376;SDS011;35253;34.688;33.040;2023-05-10T06:06:09;16.48;;;4.57;;
49376;SDS011;35253;34.688;33.040;2023-05-10T06:08:35;15.73;;;5.97;;
49376;SDS011;35253;34.688;33.040;2023-05-10T06:11:01;16.13;;;5.22;;
49376;SDS011;35253;34.688;33.040;2023-05-10T06:13:26;11.75;;;5.45;;
49376;SDS011;35253;34.688;33.040;2023-05-10T06:15:57;6.90;;;4.82;;
49376;SDS011;35253;34.688;33.040;2023-05-10T06:18:23;7.45;;;5.38;;
49376;SDS011;35253;34.688;33.040;2023-05-10T06:20:50;9.95;;;4.72;;
49376;SDS011;35253;34.688;33.040;2023-05-10T06:23:16;6.35;;;4.20;;
49376;SDS011;35253;34.688;33.040;2023-05-10T06:25:42;10.82;;;5.03;;
49376;SDS011;35253;34.688;33.040;2023-05-10T06:28:08;9.98;;;5.07;;
49376;SDS011;35253;34.688;33.040;2023-05-10T06:30:35;9.18;;;5.82;;
49376;SDS011;35253;34.688;33.040;2023-05-10T06:33:02;9.77;;;6.10;;
49376;SDS011;35253;34.688;33.040;2023-05-10T06:35:28;8.60;;;4.72;;
49376;SDS011;35253;34.688;33.040;2023-05-10T06:37:54;11.52;;;4.65;;
49376;SDS011;35253;34.688;33.040;2023-05-10T06:40:20;12.10;;;4.65;;
49376;SDS011;35253;34.688;33.040;2023-05-10T06:42:46;10.43;;;5.60;;
49376;SDS011;35253;34.688;33.040;2023-05-10T06:45:13;9.63;;;4.90;;
49376;SDS011;35253;34.688;33.040;2023-05-10T06:47:39;8.95;;;4.25;;
49376;SDS011;35253;34.688;33.040;2023-05-10T06:50:06;7.13;;;4.35;;
49376;SDS011;35253;34.688;33.040;2023-05-10T06:52:36;7.25;;;5.55;;
49376;SDS011;35253;34.688;33.040;2023-05-10T06:55:03;7.82;;;5.25;;
49376;SDS011;35253;34.688;33.040;2023-05-10T06:57:30;11.13;;;4.80;;
49376;SDS011;35253;34.688;33.040;2023-05-10T06:59:56;9.05;;;5.00;;
49376;SDS011;35253;34.688;33.040;2023-05-10T07:02:22;10.32;;;5.82;;
49376;SDS011;35253;34.688;33.040;2023-05-10T07:04:48;9.60;;;5.03;;
49376;SDS011;35253;34.688;33.040;2023-05-10T07:07:14;13.32;;;5.07;;
49376;SDS011;35253;34.688;33.040;2023-05-10T07:09:40;8.02;;;4.38;;
49376;SDS011;35253;34.688;33.040;2023-05-10T07:12:05;11.40;;;5.25;;
49376;SDS011;35253;34.688;33.040;2023-05-10T07:14:31;9.52;;;4.30;;
49376;SDS011;35253;34.688;33.040;2023-05-10T07:16:57;7.20;;;4.57;;
49376;SDS011;35253;34.688;33.040;2023-05-10T07:19:23;8.90;;;5.30;;
49376;SDS011;35253;34.688;33.040;2023-05-10T07:21:48;9.00;;;4.10;;
49376;SDS011;35253;34.688;33.040;2023-05-10T07:24:16;9.57;;;4.38;;
49376;SDS011;35253;34.688;33.040;2023-05-10T07:26:41;8.02;;;4.65;;
49376;SDS011;35253;34.688;33.040;2023-05-10T07:29:07;9.15;;;6.45;;
49376;SDS011;35253;34.688;33.040;2023-05-10T07:31:33;10.50;;;4.43;;
49376;SDS011;35253;34.688;33.040;2023-05-10T07:33:58;10.02;;;5.57;;
49376;SDS011;35253;34.688;33.040;2023-05-10T07:36:24;8.52;;;4.55;;
49376;SDS011;35253;34.688;33.040;2023-05-10T07:38:49;10.57;;;4.85;;
49376;SDS011;35253;34.688;33.040;2023-05-10T07:41:15;9.23;;;4.88;;
49376;SDS011;35253;34.688;33.040;2023-05-10T07:43:41;10.10;;;4.85;;
49376;SDS011;35253;34.688;33.040;2023-05-10T07:46:06;7.60;;;4.82;;
49376;SDS011;35253;34.688;33.040;2023-05-10T07:48:32;8.90;;;4.55;;
49376;SDS011;35253;34.688;33.040;2023-05-10T07:50:58;11.68;;;5.78;;
49376;SDS011;35253;34.688;33.040;2023-05-10T07:53:25;11.90;;;6.28;;
49376;SDS011;35253;34.688;33.040;2023-05-10T07:55:52;7.97;;;5.70;;
49376;SDS011;35253;34.688;33.040;2023-05-10T07:58:23;8.82;;;5.18;;
49376;SDS011;35253;34.688;33.040;2023-05-10T08:00:49;13.20;;;6.20;;
49376;SDS011;35253;34.688;33.040;2023-05-10T08:03:14;9.30;;;5.50;;
49376;SDS011;35253;34.688;33.040;2023-05-10T08:05:40;17.83;;;6.88;;
49376;SDS011;35253;34.688;33.040;2023-05-10T08:08:06;9.25;;;5.75;;
49376;SDS011;35253;34.688;33.040;2023-05-10T08:10:32;12.35;;;7.47;;
49376;SDS011;35253;34.688;33.040;2023-05-10T08:12:57;14.48;;;6.35;;
49376;SDS011;35253;34.688;33.040;2023-05-10T08:15:26;12.82;;;7.13;;
49376;SDS011;35253;34.688;33.040;2023-05-10T08:17:52;10.15;;;5.70;;
49376;SDS011;35253;34.688;33.040;2023-05-10T08:20:17;12.45;;;5.40;;
49376;SDS011;35253;34.688;33.040;2023-05-10T08:22:46;8.63;;;5.40;;
49376;SDS011;35253;34.688;33.040;2023-05-10T08:25:12;13.68;;;5.85;;
49376;SDS011;35253;34.688;33.040;2023-05-10T08:27:38;10.10;;;6.10;;
49376;SDS011;35253;34.688;33.040;2023-05-10T08:30:03;9.52;;;5.97;;
49376;SDS011;35253;34.688;33.040;2023-05-10T08:32:30;12.65;;;7.43;;
49376;SDS011;35253;34.688;33.040;2023-05-10T08:34:56;8.95;;;5.20;;
49376;SDS011;35253;34.688;33.040;2023-05-10T08:37:23;21.60;;;6.70;;
49376;SDS011;35253;34.688;33.040;2023-05-10T08:39:49;10.15;;;5.93;;
49376;SDS011;35253;34.688;33.040;2023-05-10T08:42:15;9.18;;;6.30;;
49376;SDS011;35253;34.688;33.040;2023-05-10T08:47:12;8.38;;;6.15;;
49376;SDS011;35253;34.688;33.040;2023-05-10T08:49:41;15.75;;;6.57;;
49376;SDS011;35253;34.688;33.040;2023-05-10T08:52:08;8.93;;;7.65;;
49376;SDS011;35253;34.688;33.040;2023-05-10T08:54:37;10.63;;;6.82;;
49376;SDS011;35253;34.688;33.040;2023-05-10T08:57:04;12.15;;;6.22;;
49376;SDS011;35253;34.688;33.040;2023-05-10T08:59:30;10.05;;;5.78;;
49376;SDS011;35253;34.688;33.040;2023-05-10T09:01:57;10.77;;;7.07;;
49376;SDS011;35253;34.688;33.040;2023-05-10T09:04:24;11.10;;;7.03;;
49376;SDS011;35253;34.688;33.040;2023-05-10T09:06:50;12.05;;;9.15;;
49376;SDS011;35253;34.688;33.040;2023-05-10T09:09:17;10.18;;;8.38;;
49376;SDS011;35253;34.688;33.040;2023-05-10T09:11:44;6.65;;;5.97;;
49376;SDS011;35253;34.688;33.040;2023-05-10T09:14:11;9.10;;;6.07;;
49376;SDS011;35253;34.688;33.040;2023-05-10T09:16:38;10.13;;;6.15;;
49376;SDS011;35253;34.688;33.040;2023-05-10T09:19:09;15.63;;;6.07;;
49376;SDS011;35253;34.688;33.040;2023-05-10T09:21:36;17.13;;;6.63;;
49376;SDS011;35253;34.688;33.040;2023-05-10T09:24:06;7.82;;;6.85;;
49376;SDS011;35253;34.688;33.040;2023-05-10T09:26:32;8.27;;;6.72;;
49376;SDS011;35253;34.688;33.040;2023-05-10T09:29:00;10.73;;;5.95;;
49376;SDS011;35253;34.688;33.040;2023-05-10T09:34:29;8.57;;;6.35;;
49376;SDS011;35253;34.688;33.040;2023-05-10T09:36:57;12.68;;;8.82;;
49376;SDS011;35253;34.688;33.040;2023-05-10T09:39:31;8.35;;;6.72;;
49376;SDS011;35253;34.688;33.040;2023-05-10T09:42:04;9.73;;;8.35;;
49376;SDS011;35253;34.688;33.040;2023-05-10T09:44:32;14.52;;;8.88;;
49376;SDS011;35253;34.688;33.040;2023-05-10T09:46:58;13.00;;;8.27;;
49376;SDS011;35253;34.688;33.040;2023-05-10T09:49:25;9.52;;;6.63;;
49376;SDS011;35253;34.688;33.040;2023-05-10T09:52:00;10.55;;;7.22;;
49376;SDS011;35253;34.688;33.040;2023-05-10T09:56:56;9.95;;;6.65;;
49376;SDS011;35253;34.688;33.040;2023-05-10T09:59:22;8.45;;;6.38;;
49376;SDS011;35253;34.688;33.040;2023-05-10T10:01:51;9.68;;;5.50;;
49376;SDS011;35253;34.688;33.040;2023-05-10T10:04:25;6.97;;;6.32;;
49376;SDS011;35253;34.688;33.040;2023-05-10T10:07:04;6.75;;;5.18;;
49376;SDS011;35253;34.688;33.040;2023-05-10T10:09:31;8.65;;;6.35;;
49376;SDS011;35253;34.688;33.040;2023-05-10T10:11:57;5.88;;;5.25;;
49376;SDS011;35253;34.688;33.040;2023-05-10T10:14:24;6.65;;;4.60;;
49376;SDS011;35253;34.688;33.040;2023-05-10T10:16:51;7.30;;;4.80;;
49376;SDS011;35253;34.688;33.040;2023-05-10T10:19:20;7.75;;;4.80;;
49376;SDS011;35253;34.688;33.040;2023-05-10T10:21:49;6.05;;;3.60;;
49376;SDS011;35253;34.688;33.040;2023-05-10T10:24:16;8.33;;;4.47;;
49376;SDS011;35253;34.688;33.040;2023-05-10T10:26:42;8.15;;;5.93;;
49376;SDS011;35253;34.688;33.040;2023-05-10T10:31:41;13.00;;;5.65;;
49376;SDS011;35253;34.688;33.040;2023-05-10T10:34:27;9.15;;;4.60;;
49376;SDS011;35253;34.688;33.040;2023-05-10T10:36:55;6.78;;;4.95;;
49376;SDS011;35253;34.688;33.040;2023-05-10T10:39:23;6.25;;;4.85;;
49376;SDS011;35253;34.688;33.040;2023-05-10T10:41:55;11.15;;;6.10;;
49376;SDS011;35253;34.688;33.040;2023-05-10T10:47:36;7.40;;;6.25;;
49376;SDS011;35253;34.688;33.040;2023-05-10T10:49:37;8.68;;;6.70;;
49376;SDS011;35253;34.688;33.040;2023-05-10T10:54:40;8.85;;;5.50;;
49376;SDS011;35253;34.688;33.040;2023-05-10T10:57:10;9.07;;;6.28;;
49376;SDS011;35253;34.688;33.040;2023-05-10T10:59:44;8.23;;;5.55;;
49376;SDS011;35253;34.688;33.040;2023-05-10T11:02:20;9.02;;;6.38;;
49376;SDS011;35253;34.688;33.040;2023-05-10T11:05:00;9.90;;;7.53;;
49376;SDS011;35253;34.688;33.040;2023-05-10T11:07:57;11.05;;;8.77;;
49376;SDS011;35253;34.688;33.040;2023-05-10T11:10:24;5.53;;;4.80;;
49376;SDS011;35253;34.688;33.040;2023-05-10T11:13:01;6.63;;;5.78;;
49376;SDS011;35253;34.688;33.040;2023-05-10T11:15:28;19.85;;;9.43;;
49376;SDS011;35253;34.688;33.040;2023-05-10T11:17:58;11.10;;;6.55;;
49376;SDS011;35253;34.688;33.040;2023-05-10T11:20:26;10.80;;;7.60;;
49376;SDS011;35253;34.688;33.040;2023-05-10T11:22:59;8.13;;;6.10;;
49376;SDS011;35253;34.688;33.040;2023-05-10T11:25:44;7.47;;;4.45;;
49376;SDS011;35253;34.688;33.040;2023-05-10T11:28:11;12.15;;;5.88;;
49376;SDS011;35253;34.688;33.040;2023-05-10T11:30:41;11.55;;;7.70;;
49376;SDS011;35253;34.688;33.040;2023-05-10T11:33:09;9.02;;;5.70;;
49376;SDS011;35253;34.688;33.040;2023-05-10T11:35:39;11.05;;;5.72;;
49376;SDS011;35253;34.688;33.040;2023-05-10T11:40:34;5.95;;;5.38;;
49376;SDS011;35253;34.688;33.040;2023-05-10T11:43:01;7.20;;;4.80;;
49376;SDS011;35253;34.688;33.040;2023-05-10T11:45:28;6.10;;;4.72;;
49376;SDS011;35253;34.688;33.040;2023-05-10T11:47:55;11.73;;;7.03;;
49376;SDS011;35253;34.688;33.040;2023-05-10T11:50:22;8.90;;;8.02;;
49376;SDS011;35253;34.688;33.040;2023-05-10T11:53:05;11.10;;;8.43;;
49376;SDS011;35253;34.688;33.040;2023-05-10T11:55:33;10.65;;;5.18;;
49376;SDS011;35253;34.688;33.040;2023-05-10T11:58:00;5.85;;;5.03;;
49376;SDS011;35253;34.688;33.040;2023-05-10T12:00:27;7.28;;;4.72;;
49376;SDS011;35253;34.688;33.040;2023-05-10T12:02:54;11.07;;;4.93;;
49376;SDS011;35253;34.688;33.040;2023-05-10T12:05:19;12.65;;;5.10;;
49376;SDS011;35253;34.688;33.040;2023-05-10T12:07:46;8.10;;;4.97;;
49376;SDS011;35253;34.688;33.040;2023-05-10T12:10:12;5.80;;;4.45;;
49376;SDS011;35253;34.688;33.040;2023-05-10T12:12:45;6.53;;;5.25;;
49376;SDS011;35253;34.688;33.040;2023-05-10T12:15:24;8.57;;;5.20;;
49376;SDS011;35253;34.688;33.040;2023-05-10T12:17:50;8.88;;;4.35;;
49376;SDS011;35253;34.688;33.040;2023-05-10T12:20:17;5.00;;;4.50;;
49376;SDS011;35253;34.688;33.040;2023-05-10T12:22:49;6.72;;;4.28;;
49376;SDS011;35253;34.688;33.040;2023-05-10T12:25:14;9.07;;;4.45;;
49376;SDS011;35253;34.688;33.040;2023-05-10T12:27:47;6.30;;;4.25;;
49376;SDS011;35253;34.688;33.040;2023-05-10T12:33:09;7.00;;;4.55;;
49376;SDS011;35253;34.688;33.040;2023-05-10T12:35:43;8.48;;;3.95;;
49376;SDS011;35253;34.688;33.040;2023-05-10T12:38:26;10.10;;;4.00;;
49376;SDS011;35253;34.688;33.040;2023-05-10T12:40:59;4.35;;;2.55;;
49376;SDS011;35253;34.688;33.040;2023-05-10T12:43:27;5.40;;;3.30;;
49376;SDS011;35253;34.688;33.040;2023-05-10T12:45:53;5.85;;;3.35;;
49376;SDS011;35253;34.688;33.040;2023-05-10T12:48:19;5.15;;;3.75;;
49376;SDS011;35253;34.688;33.040;2023-05-10T12:50:45;5.03;;;2.83;;
49376;SDS011;35253;34.688;33.040;2023-05-10T12:53:12;6.53;;;4.35;;
49376;SDS011;35253;34.688;33.040;2023-05-10T12:58:07;17.38;;;4.45;;
49376;SDS011;35253;34.688;33.040;2023-05-10T13:00:33;7.75;;;4.97;;
49376;SDS011;35253;34.688;33.040;2023-05-10T13:02:58;7.88;;;3.15;;
49376;SDS011;35253;34.688;33.040;2023-05-10T13:05:24;7.50;;;3.58;;
49376;SDS011;35253;34.688;33.040;2023-05-10T13:07:50;6.55;;;3.35;;
49376;SDS011;35253;34.688;33.040;2023-05-10T13:10:16;6.30;;;4.30;;
49376;SDS011;35253;34.688;33.040;2023-05-10T13:12:41;5.45;;;3.45;;
49376;SDS011;35253;34.688;33.040;2023-05-10T13:15:07;5.97;;;3.83;;
49376;SDS011;35253;34.688;33.040;2023-05-10T13:17:33;5.85;;;3.47;;
49376;SDS011;35253;34.688;33.040;2023-05-10T13:19:59;6.70;;;3.25;;
49376;SDS011;35253;34.688;33.040;2023-05-10T13:22:24;4.65;;;2.75;;
49376;SDS011;35253;34.688;33.040;2023-05-10T13:24:50;8.20;;;2.88;;
49376;SDS011;35253;34.688;33.040;2023-05-10T13:27:16;5.10;;;3.15;;
49376;SDS011;35253;34.688;33.040;2023-05-10T13:29:42;4.68;;;4.20;;
49376;SDS011;35253;34.688;33.040;2023-05-10T13:32:07;7.35;;;3.55;;
49376;SDS011;35253;34.688;33.040;2023-05-10T13:34:33;5.95;;;3.20;;
49376;SDS011;35253;34.688;33.040;2023-05-10T13:37:00;7.40;;;3.22;;
49376;SDS011;35253;34.688;33.040;2023-05-10T13:39:26;9.10;;;3.63;;
49376;SDS011;35253;34.688;33.040;2023-05-10T13:41:52;8.13;;;3.17;;
49376;SDS011;35253;34.688;33.040;2023-05-10T13:44:19;5.97;;;3.05;;
49376;SDS011;35253;34.688;33.040;2023-05-10T13:46:45;5.18;;;2.58;;
49376;SDS011;35253;34.688;33.040;2023-05-10T13:49:11;7.50;;;3.10;;
49376;SDS011;35253;34.688;33.040;2023-05-10T13:51:37;5.80;;;2.83;;
49376;SDS011;35253;34.688;33.040;2023-05-10T13:54:02;4.75;;;3.17;;
49376;SDS011;35253;34.688;33.040;2023-05-10T13:56:28;3.63;;;2.60;;
49376;SDS011;35253;34.688;33.040;2023-05-10T13:58:55;6.85;;;3.15;;
49376;SDS011;35253;34.688;33.040;2023-05-10T14:01:23;3.10;;;2.80;;
49376;SDS011;35253;34.688;33.040;2023-05-10T14:03:49;6.80;;;3.47;;
49376;SDS011;35253;34.688;33.040;2023-05-10T14:06:14;3.45;;;2.90;;
49376;SDS011;35253;34.688;33.040;2023-05-10T14:08:40;10.80;;;5.82;;
49376;SDS011;35253;34.688;33.040;2023-05-10T14:11:06;6.90;;;3.38;;
49376;SDS011;35253;34.688;33.040;2023-05-10T14:13:32;3.80;;;2.55;;
49376;SDS011;35253;34.688;33.040;2023-05-10T14:15:58;4.28;;;3.33;;
49376;SDS011;35253;34.688;33.040;2023-05-10T14:18:26;5.20;;;2.75;;
49376;SDS011;35253;34.688;33.040;2023-05-10T14:20:52;5.45;;;2.28;;
49376;SDS011;35253;34.688;33.040;2023-05-10T14:23:18;13.57;;;8.20;;
49376;SDS011;35253;34.688;33.040;2023-05-10T14:25:52;10.45;;;4.75;;
49376;SDS011;35253;34.688;33.040;2023-05-10T14:28:18;13.50;;;6.77;;
49376;SDS011;35253;34.688;33.040;2023-05-10T14:30:45;10.48;;;5.30;;
49376;SDS011;35253;34.688;33.040;2023-05-10T14:33:11;5.53;;;2.65;;
49376;SDS011;35253;34.688;33.040;2023-05-10T14:35:37;6.30;;;4.32;;
49376;SDS011;35253;34.688;33.040;2023-05-10T14:38:03;5.63;;;2.95;;
49376;SDS011;35253;34.688;33.040;2023-05-10T14:40:29;3.95;;;3.00;;
49376;SDS011;35253;34.688;33.040;2023-05-10T14:42:55;6.95;;;4.30;;
49376;SDS011;35253;34.688;33.040;2023-05-10T14:45:21;4.78;;;3.10;;
49376;SDS011;35253;34.688;33.040;2023-05-10T14:47:47;10.35;;;2.88;;
49376;SDS011;35253;34.688;33.040;2023-05-10T14:50:14;6.78;;;3.92;;
49376;SDS011;35253;34.688;33.040;2023-05-10T14:52:41;5.82;;;3.13;;
49376;SDS011;35253;34.688;33.040;2023-05-10T14:55:07;6.28;;;3.05;;
49376;SDS011;35253;34.688;33.040;2023-05-10T14:57:33;11.10;;;5.85;;
49376;SDS011;35253;34.688;33.040;2023-05-10T14:59:59;10.63;;;5.60;;
49376;SDS011;35253;34.688;33.040;2023-05-10T15:02:25;8.27;;;4.20;;
49376;SDS011;35253;34.688;33.040;2023-05-10T15:04:51;10.13;;;4.05;;
49376;SDS011;35253;34.688;33.040;2023-05-10T15:07:16;5.93;;;3.45;;
49376;SDS011;35253;34.688;33.040;2023-05-10T15:09:44;9.00;;;3.30;;
49376;SDS011;35253;34.688;33.040;2023-05-10T15:12:10;7.15;;;3.80;;
49376;SDS011;35253;34.688;33.040;2023-05-10T15:14:36;6.90;;;3.80;;